sensor_id;sensor_type;location;lat;lon;timestamp;P1;durP1;ratioP1;P2;durP2;ratioP2
69621;SDS011;56841;55.964;37.674;2023-06-22T00:00:55;12.77;;;4.97;;
69621;SDS011;56841;55.964;37.674;2023-06-22T00:03:22;13.77;;;5.28;;
69621;SDS011;56841;55.964;37.674;2023-06-22T00:05:49;20.42;;;5.60;;
69621;SDS011;56841;55.964;37.674;2023-06-22T00:08:15;14.52;;;5.60;;
69621;SDS011;56841;55.964;37.674;2023-06-22T00:10:41;18.80;;;5.90;;
69621;SDS011;56841;55.964;37.674;2023-06-22T00:13:08;17.30;;;5.55;;
69621;SDS011;56841;55.964;37.674;2023-06-22T00:15:35;13.32;;;5.78;;
69621;SDS011;56841;55.964;37.674;2023-06-22T00:18:01;15.55;;;5.40;;
69621;SDS011;56841;55.964;37.674;2023-06-22T00:20:27;20.75;;;5.97;;
69621;SDS011;56841;55.964;37.674;2023-06-22T00:22:54;16.83;;;6.00;;
69621;SDS011;56841;55.964;37.674;2023-06-22T00:25:24;15.77;;;5.93;;
69621;SDS011;56841;55.964;37.674;2023-06-22T00:27:49;20.63;;;5.93;;
69621;SDS011;56841;55.964;37.674;2023-06-22T00:30:15;18.15;;;5.95;;
69621;SDS011;56841;55.964;37.674;2023-06-22T00:32:42;19.38;;;5.55;;
69621;SDS011;56841;55.964;37.674;2023-06-22T00:35:08;17.50;;;5.50;;
69621;SDS011;56841;55.964;37.674;2023-06-22T00:37:35;16.17;;;5.45;;
69621;SDS011;56841;55.964;37.674;2023-06-22T00:40:01;17.55;;;5.70;;
69621;SDS011;56841;55.964;37.674;2023-06-22T00:42:30;16.17;;;5.70;;
69621;SDS011;56841;55.964;37.674;2023-06-22T00:44:56;14.85;;;5.43;;
69621;SDS011;56841;55.964;37.674;2023-06-22T00:47:23;16.25;;;5.15;;
69621;SDS011;56841;55.964;37.674;2023-06-22T00:49:49;15.50;;;5.78;;
69621;SDS011;56841;55.964;37.674;2023-06-22T00:52:24;14.45;;;5.43;;
69621;SDS011;56841;55.964;37.674;2023-06-22T00:54:55;18.45;;;6.25;;
69621;SDS011;56841;55.964;37.674;2023-06-22T00:57:22;19.65;;;5.68;;
69621;SDS011;56841;55.964;37.674;2023-06-22T00:59:54;18.88;;;5.28;;
69621;SDS011;56841;55.964;37.674;2023-06-22T01:02:20;18.23;;;5.40;;
69621;SDS011;56841;55.964;37.674;2023-06-22T01:04:46;14.82;;;5.35;;
69621;SDS011;56841;55.964;37.674;2023-06-22T01:07:25;23.35;;;6.03;;
69621;SDS011;56841;55.964;37.674;2023-06-22T01:10:02;19.15;;;5.80;;
69621;SDS011;56841;55.964;37.674;2023-06-22T01:12:42;20.50;;;6.07;;
69621;SDS011;56841;55.964;37.674;2023-06-22T01:15:16;19.88;;;5.68;;
69621;SDS011;56841;55.964;37.674;2023-06-22T01:17:47;20.17;;;6.00;;
69621;SDS011;56841;55.964;37.674;2023-06-22T01:20:14;18.67;;;6.15;;
69621;SDS011;56841;55.964;37.674;2023-06-22T01:22:56;24.63;;;6.85;;
69621;SDS011;56841;55.964;37.674;2023-06-22T01:25:45;25.05;;;7.05;;
69621;SDS011;56841;55.964;37.674;2023-06-22T01:30:48;28.23;;;7.13;;
69621;SDS011;56841;55.964;37.674;2023-06-22T01:33:15;26.40;;;7.00;;
69621;SDS011;56841;55.964;37.674;2023-06-22T01:35:43;18.75;;;6.35;;
69621;SDS011;56841;55.964;37.674;2023-06-22T01:38:09;16.13;;;6.28;;
69621;SDS011;56841;55.964;37.674;2023-06-22T01:40:35;18.95;;;6.32;;
69621;SDS011;56841;55.964;37.674;2023-06-22T01:43:02;25.85;;;7.30;;
69621;SDS011;56841;55.964;37.674;2023-06-22T01:45:28;29.73;;;8.73;;
69621;SDS011;56841;55.964;37.674;2023-06-22T01:47:55;23.40;;;7.50;;
69621;SDS011;56841;55.964;37.674;2023-06-22T01:50:22;16.00;;;6.30;;
69621;SDS011;56841;55.964;37.674;2023-06-22T01:52:48;20.50;;;6.07;;
69621;SDS011;56841;55.964;37.674;2023-06-22T01:55:14;22.58;;;6.78;;
69621;SDS011;56841;55.964;37.674;2023-06-22T01:57:39;20.88;;;6.18;;
69621;SDS011;56841;55.964;37.674;2023-06-22T02:00:10;20.75;;;6.75;;
69621;SDS011;56841;55.964;37.674;2023-06-22T02:02:50;23.42;;;6.53;;
69621;SDS011;56841;55.964;37.674;2023-06-22T02:05:22;20.02;;;6.03;;
69621;SDS011;56841;55.964;37.674;2023-06-22T02:07:58;24.35;;;6.90;;
69621;SDS011;56841;55.964;37.674;2023-06-22T02:10:32;23.80;;;6.25;;
69621;SDS011;56841;55.964;37.674;2023-06-22T02:13:01;27.48;;;6.63;;
69621;SDS011;56841;55.964;37.674;2023-06-22T02:17:58;31.70;;;6.80;;
69621;SDS011;56841;55.964;37.674;2023-06-22T02:20:44;26.45;;;7.10;;
69621;SDS011;56841;55.964;37.674;2023-06-22T02:23:09;30.63;;;7.57;;
69621;SDS011;56841;55.964;37.674;2023-06-22T02:25:35;29.02;;;7.32;;
69621;SDS011;56841;55.964;37.674;2023-06-22T02:28:01;26.88;;;7.53;;
69621;SDS011;56841;55.964;37.674;2023-06-22T02:30:27;25.67;;;8.32;;
69621;SDS011;56841;55.964;37.674;2023-06-22T02:32:53;27.80;;;7.35;;
69621;SDS011;56841;55.964;37.674;2023-06-22T02:35:27;27.38;;;7.43;;
69621;SDS011;56841;55.964;37.674;2023-06-22T02:37:57;29.40;;;7.25;;
69621;SDS011;56841;55.964;37.674;2023-06-22T02:40:24;25.45;;;7.57;;
69621;SDS011;56841;55.964;37.674;2023-06-22T02:42:50;20.83;;;7.35;;
69621;SDS011;56841;55.964;37.674;2023-06-22T02:45:16;21.48;;;7.38;;
69621;SDS011;56841;55.964;37.674;2023-06-22T02:47:42;23.45;;;7.68;;
69621;SDS011;56841;55.964;37.674;2023-06-22T02:50:08;19.52;;;7.70;;
69621;SDS011;56841;55.964;37.674;2023-06-22T02:52:35;22.25;;;7.80;;
69621;SDS011;56841;55.964;37.674;2023-06-22T02:55:01;18.77;;;7.40;;
69621;SDS011;56841;55.964;37.674;2023-06-22T02:57:29;22.35;;;7.65;;
69621;SDS011;56841;55.964;37.674;2023-06-22T02:59:55;18.83;;;8.02;;
69621;SDS011;56841;55.964;37.674;2023-06-22T03:02:20;24.80;;;8.18;;
69621;SDS011;56841;55.964;37.674;2023-06-22T03:04:47;19.08;;;7.45;;
69621;SDS011;56841;55.964;37.674;2023-06-22T03:07:19;17.98;;;7.80;;
69621;SDS011;56841;55.964;37.674;2023-06-22T03:09:46;17.83;;;7.22;;
69621;SDS011;56841;55.964;37.674;2023-06-22T03:12:12;18.85;;;7.30;;
69621;SDS011;56841;55.964;37.674;2023-06-22T03:14:46;21.27;;;8.30;;
69621;SDS011;56841;55.964;37.674;2023-06-22T03:17:12;18.55;;;7.60;;
69621;SDS011;56841;55.964;37.674;2023-06-22T03:19:38;19.70;;;7.22;;
69621;SDS011;56841;55.964;37.674;2023-06-22T03:22:04;17.33;;;7.10;;
69621;SDS011;56841;55.964;37.674;2023-06-22T03:24:30;24.55;;;7.72;;
69621;SDS011;56841;55.964;37.674;2023-06-22T03:26:55;23.40;;;8.18;;
69621;SDS011;56841;55.964;37.674;2023-06-22T03:29:22;19.45;;;7.75;;
69621;SDS011;56841;55.964;37.674;2023-06-22T03:31:49;21.65;;;7.28;;
69621;SDS011;56841;55.964;37.674;2023-06-22T03:34:14;21.38;;;7.38;;
69621;SDS011;56841;55.964;37.674;2023-06-22T03:36:40;17.77;;;7.55;;
69621;SDS011;56841;55.964;37.674;2023-06-22T03:39:06;18.77;;;8.02;;
69621;SDS011;56841;55.964;37.674;2023-06-22T03:41:32;14.82;;;6.78;;
69621;SDS011;56841;55.964;37.674;2023-06-22T03:43:57;15.60;;;7.57;;
69621;SDS011;56841;55.964;37.674;2023-06-22T03:46:23;14.25;;;6.88;;
69621;SDS011;56841;55.964;37.674;2023-06-22T03:48:48;17.50;;;7.05;;
69621;SDS011;56841;55.964;37.674;2023-06-22T03:51:14;14.30;;;6.90;;
69621;SDS011;56841;55.964;37.674;2023-06-22T03:53:40;18.50;;;7.57;;
69621;SDS011;56841;55.964;37.674;2023-06-22T03:56:05;12.98;;;6.38;;
69621;SDS011;56841;55.964;37.674;2023-06-22T03:58:31;18.38;;;6.93;;
69621;SDS011;56841;55.964;37.674;2023-06-22T04:01:02;18.17;;;6.95;;
69621;SDS011;56841;55.964;37.674;2023-06-22T04:03:27;15.05;;;6.65;;
69621;SDS011;56841;55.964;37.674;2023-06-22T04:05:53;17.92;;;7.35;;
69621;SDS011;56841;55.964;37.674;2023-06-22T04:08:18;21.75;;;6.88;;
69621;SDS011;56841;55.964;37.674;2023-06-22T04:10:44;14.30;;;6.70;;
69621;SDS011;56841;55.964;37.674;2023-06-22T04:13:10;17.45;;;6.35;;
69621;SDS011;56841;55.964;37.674;2023-06-22T04:15:35;15.57;;;6.57;;
69621;SDS011;56841;55.964;37.674;2023-06-22T04:18:01;13.68;;;6.60;;
69621;SDS011;56841;55.964;37.674;2023-06-22T04:20:26;14.82;;;6.00;;
69621;SDS011;56841;55.964;37.674;2023-06-22T04:22:53;19.98;;;6.72;;
69621;SDS011;56841;55.964;37.674;2023-06-22T04:25:19;16.02;;;7.32;;
69621;SDS011;56841;55.964;37.674;2023-06-22T04:27:45;14.10;;;6.60;;
69621;SDS011;56841;55.964;37.674;2023-06-22T04:30:11;15.15;;;6.30;;
69621;SDS011;56841;55.964;37.674;2023-06-22T04:32:37;15.10;;;7.53;;
69621;SDS011;56841;55.964;37.674;2023-06-22T04:35:03;17.08;;;5.68;;
69621;SDS011;56841;55.964;37.674;2023-06-22T04:37:32;16.40;;;6.07;;
69621;SDS011;56841;55.964;37.674;2023-06-22T04:39:58;14.73;;;5.53;;
69621;SDS011;56841;55.964;37.674;2023-06-22T04:42:26;16.15;;;5.90;;
69621;SDS011;56841;55.964;37.674;2023-06-22T04:44:52;15.43;;;6.72;;
69621;SDS011;56841;55.964;37.674;2023-06-22T04:47:18;13.93;;;5.20;;
69621;SDS011;56841;55.964;37.674;2023-06-22T04:49:44;15.68;;;5.32;;
69621;SDS011;56841;55.964;37.674;2023-06-22T04:52:10;19.50;;;6.50;;
69621;SDS011;56841;55.964;37.674;2023-06-22T04:54:38;12.68;;;5.55;;
69621;SDS011;56841;55.964;37.674;2023-06-22T04:57:06;16.52;;;6.32;;
69621;SDS011;56841;55.964;37.674;2023-06-22T04:59:35;13.80;;;5.35;;
69621;SDS011;56841;55.964;37.674;2023-06-22T05:02:04;13.52;;;5.55;;
69621;SDS011;56841;55.964;37.674;2023-06-22T05:04:31;12.60;;;5.20;;
69621;SDS011;56841;55.964;37.674;2023-06-22T05:06:57;16.75;;;6.90;;
69621;SDS011;56841;55.964;37.674;2023-06-22T05:09:24;10.15;;;4.53;;
69621;SDS011;56841;55.964;37.674;2023-06-22T05:11:52;13.52;;;4.18;;
69621;SDS011;56841;55.964;37.674;2023-06-22T05:14:18;11.18;;;4.15;;
69621;SDS011;56841;55.964;37.674;2023-06-22T05:16:44;13.52;;;4.40;;
69621;SDS011;56841;55.964;37.674;2023-06-22T05:19:10;10.95;;;3.97;;
69621;SDS011;56841;55.964;37.674;2023-06-22T05:21:36;8.18;;;3.63;;
69621;SDS011;56841;55.964;37.674;2023-06-22T05:24:02;7.22;;;3.45;;
69621;SDS011;56841;55.964;37.674;2023-06-22T05:26:32;8.07;;;3.45;;
69621;SDS011;56841;55.964;37.674;2023-06-22T05:28:59;8.50;;;4.00;;
69621;SDS011;56841;55.964;37.674;2023-06-22T05:31:26;10.52;;;3.85;;
69621;SDS011;56841;55.964;37.674;2023-06-22T05:33:53;6.63;;;3.35;;
69621;SDS011;56841;55.964;37.674;2023-06-22T05:36:20;8.80;;;3.60;;
69621;SDS011;56841;55.964;37.674;2023-06-22T05:38:46;10.40;;;3.45;;
69621;SDS011;56841;55.964;37.674;2023-06-22T05:41:13;8.40;;;4.20;;
69621;SDS011;56841;55.964;37.674;2023-06-22T05:43:39;11.00;;;3.75;;
69621;SDS011;56841;55.964;37.674;2023-06-22T05:46:05;9.65;;;3.58;;
69621;SDS011;56841;55.964;37.674;2023-06-22T05:48:31;9.25;;;4.72;;
69621;SDS011;56841;55.964;37.674;2023-06-22T05:50:57;8.80;;;3.80;;
69621;SDS011;56841;55.964;37.674;2023-06-22T05:53:24;7.78;;;3.58;;
69621;SDS011;56841;55.964;37.674;2023-06-22T05:55:49;8.70;;;3.45;;
69621;SDS011;56841;55.964;37.674;2023-06-22T05:58:15;7.88;;;3.97;;
69621;SDS011;56841;55.964;37.674;2023-06-22T06:00:41;9.20;;;3.90;;
69621;SDS011;56841;55.964;37.674;2023-06-22T06:03:08;7.93;;;4.05;;
69621;SDS011;56841;55.964;37.674;2023-06-22T06:05:34;8.82;;;3.80;;
69621;SDS011;56841;55.964;37.674;2023-06-22T06:08:00;6.35;;;3.47;;
69621;SDS011;56841;55.964;37.674;2023-06-22T06:10:28;6.43;;;3.80;;
69621;SDS011;56841;55.964;37.674;2023-06-22T06:12:55;6.13;;;3.55;;
69621;SDS011;56841;55.964;37.674;2023-06-22T06:15:21;10.43;;;3.50;;
69621;SDS011;56841;55.964;37.674;2023-06-22T06:17:47;10.02;;;3.60;;
69621;SDS011;56841;55.964;37.674;2023-06-22T06:20:14;6.03;;;3.45;;
69621;SDS011;56841;55.964;37.674;2023-06-22T06:22:40;6.60;;;3.55;;
69621;SDS011;56841;55.964;37.674;2023-06-22T06:25:08;7.05;;;3.30;;
69621;SDS011;56841;55.964;37.674;2023-06-22T06:27:34;7.20;;;3.72;;
69621;SDS011;56841;55.964;37.674;2023-06-22T06:29:59;7.00;;;3.10;;
69621;SDS011;56841;55.964;37.674;2023-06-22T06:32:25;7.25;;;3.47;;
69621;SDS011;56841;55.964;37.674;2023-06-22T06:34:50;8.30;;;3.20;;
69621;SDS011;56841;55.964;37.674;2023-06-22T06:37:16;6.72;;;2.97;;
69621;SDS011;56841;55.964;37.674;2023-06-22T06:39:42;9.32;;;3.30;;
69621;SDS011;56841;55.964;37.674;2023-06-22T06:42:08;7.03;;;3.40;;
69621;SDS011;56841;55.964;37.674;2023-06-22T06:44:34;7.60;;;3.60;;
69621;SDS011;56841;55.964;37.674;2023-06-22T06:47:00;6.70;;;2.72;;
69621;SDS011;56841;55.964;37.674;2023-06-22T06:49:25;5.03;;;2.88;;
69621;SDS011;56841;55.964;37.674;2023-06-22T06:51:51;6.50;;;2.75;;
69621;SDS011;56841;55.964;37.674;2023-06-22T06:54:17;5.97;;;2.72;;
69621;SDS011;56841;55.964;37.674;2023-06-22T06:56:45;6.50;;;2.30;;
69621;SDS011;56841;55.964;37.674;2023-06-22T06:59:13;4.53;;;2.42;;
69621;SDS011;56841;55.964;37.674;2023-06-22T07:01:41;5.30;;;2.88;;
69621;SDS011;56841;55.964;37.674;2023-06-22T07:04:09;6.22;;;2.60;;
69621;SDS011;56841;55.964;37.674;2023-06-22T07:06:35;5.00;;;2.83;;
69621;SDS011;56841;55.964;37.674;2023-06-22T07:09:00;8.13;;;2.47;;
69621;SDS011;56841;55.964;37.674;2023-06-22T07:11:26;4.65;;;2.22;;
69621;SDS011;56841;55.964;37.674;2023-06-22T07:13:53;5.03;;;2.90;;
69621;SDS011;56841;55.964;37.674;2023-06-22T07:16:18;6.20;;;2.63;;
69621;SDS011;56841;55.964;37.674;2023-06-22T07:18:44;6.30;;;2.95;;
69621;SDS011;56841;55.964;37.674;2023-06-22T07:21:09;4.88;;;2.40;;
69621;SDS011;56841;55.964;37.674;2023-06-22T07:23:35;6.65;;;2.28;;
69621;SDS011;56841;55.964;37.674;2023-06-22T07:26:01;5.45;;;2.78;;
69621;SDS011;56841;55.964;37.674;2023-06-22T07:28:27;5.13;;;2.60;;
69621;SDS011;56841;55.964;37.674;2023-06-22T07:30:53;4.85;;;2.70;;
69621;SDS011;56841;55.964;37.674;2023-06-22T07:33:19;4.32;;;2.05;;
69621;SDS011;56841;55.964;37.674;2023-06-22T07:35:44;5.45;;;2.97;;
69621;SDS011;56841;55.964;37.674;2023-06-22T07:38:10;5.15;;;2.35;;
69621;SDS011;56841;55.964;37.674;2023-06-22T07:40:36;4.53;;;2.90;;
69621;SDS011;56841;55.964;37.674;2023-06-22T07:43:02;5.35;;;2.63;;
69621;SDS011;56841;55.964;37.674;2023-06-22T07:45:28;5.57;;;2.45;;
69621;SDS011;56841;55.964;37.674;2023-06-22T07:47:54;5.20;;;2.67;;
69621;SDS011;56841;55.964;37.674;2023-06-22T07:50:20;6.05;;;2.72;;
69621;SDS011;56841;55.964;37.674;2023-06-22T07:52:46;5.57;;;3.33;;
69621;SDS011;56841;55.964;37.674;2023-06-22T07:55:13;3.97;;;2.30;;
69621;SDS011;56841;55.964;37.674;2023-06-22T07:57:39;5.82;;;2.65;;
69621;SDS011;56841;55.964;37.674;2023-06-22T08:00:06;4.53;;;2.58;;
69621;SDS011;56841;55.964;37.674;2023-06-22T08:02:42;3.83;;;2.40;;
69621;SDS011;56841;55.964;37.674;2023-06-22T08:05:09;6.70;;;2.58;;
69621;SDS011;56841;55.964;37.674;2023-06-22T08:07:36;4.97;;;2.88;;
69621;SDS011;56841;55.964;37.674;2023-06-22T08:10:04;4.57;;;2.90;;
69621;SDS011;56841;55.964;37.674;2023-06-22T08:12:31;6.68;;;2.53;;
69621;SDS011;56841;55.964;37.674;2023-06-22T08:14:57;6.68;;;3.10;;
69621;SDS011;56841;55.964;37.674;2023-06-22T08:17:23;6.35;;;3.13;;
69621;SDS011;56841;55.964;37.674;2023-06-22T08:19:50;6.40;;;2.45;;
69621;SDS011;56841;55.964;37.674;2023-06-22T08:22:15;6.55;;;2.63;;
69621;SDS011;56841;55.964;37.674;2023-06-22T08:24:42;5.53;;;3.05;;
69621;SDS011;56841;55.964;37.674;2023-06-22T08:27:09;5.18;;;2.33;;
69621;SDS011;56841;55.964;37.674;2023-06-22T08:29:37;4.15;;;2.38;;
69621;SDS011;56841;55.964;37.674;2023-06-22T08:32:03;4.82;;;2.90;;
69621;SDS011;56841;55.964;37.674;2023-06-22T08:34:28;5.18;;;2.42;;
69621;SDS011;56841;55.964;37.674;2023-06-22T08:36:54;5.53;;;2.30;;
69621;SDS011;56841;55.964;37.674;2023-06-22T08:39:20;6.32;;;2.85;;
69621;SDS011;56841;55.964;37.674;2023-06-22T08:41:48;6.70;;;3.20;;
69621;SDS011;56841;55.964;37.674;2023-06-22T08:44:15;5.32;;;3.05;;
69621;SDS011;56841;55.964;37.674;2023-06-22T08:46:43;5.85;;;3.10;;
69621;SDS011;56841;55.964;37.674;2023-06-22T08:49:08;7.05;;;3.00;;
69621;SDS011;56841;55.964;37.674;2023-06-22T08:51:35;5.05;;;2.80;;
69621;SDS011;56841;55.964;37.674;2023-06-22T08:54:01;6.35;;;2.60;;
69621;SDS011;56841;55.964;37.674;2023-06-22T08:56:26;7.45;;;2.88;;
69621;SDS011;56841;55.964;37.674;2023-06-22T08:58:52;5.93;;;2.70;;
69621;SDS011;56841;55.964;37.674;2023-06-22T09:01:17;6.88;;;3.20;;
69621;SDS011;56841;55.964;37.674;2023-06-22T09:03:44;6.40;;;2.53;;
69621;SDS011;56841;55.964;37.674;2023-06-22T09:06:19;3.53;;;1.85;;
69621;SDS011;56841;55.964;37.674;2023-06-22T09:08:45;5.22;;;2.72;;
69621;SDS011;56841;55.964;37.674;2023-06-22T09:11:12;8.60;;;3.00;;
69621;SDS011;56841;55.964;37.674;2023-06-22T09:13:37;5.00;;;2.40;;
69621;SDS011;56841;55.964;37.674;2023-06-22T09:16:03;6.57;;;3.45;;
69621;SDS011;56841;55.964;37.674;2023-06-22T09:18:29;7.35;;;3.63;;
69621;SDS011;56841;55.964;37.674;2023-06-22T09:20:54;5.60;;;3.13;;
69621;SDS011;56841;55.964;37.674;2023-06-22T09:23:20;5.13;;;3.15;;
69621;SDS011;56841;55.964;37.674;2023-06-22T09:25:49;5.57;;;3.13;;
69621;SDS011;56841;55.964;37.674;2023-06-22T09:28:14;6.80;;;4.00;;
69621;SDS011;56841;55.964;37.674;2023-06-22T09:30:40;8.18;;;3.80;;
69621;SDS011;56841;55.964;37.674;2023-06-22T09:33:07;6.40;;;3.10;;
69621;SDS011;56841;55.964;37.674;2023-06-22T09:35:33;4.93;;;2.42;;
69621;SDS011;56841;55.964;37.674;2023-06-22T09:37:59;4.63;;;3.35;;
69621;SDS011;56841;55.964;37.674;2023-06-22T09:40:25;5.65;;;3.17;;
69621;SDS011;56841;55.964;37.674;2023-06-22T09:42:51;7.15;;;3.42;;
69621;SDS011;56841;55.964;37.674;2023-06-22T09:45:16;4.13;;;3.00;;
69621;SDS011;56841;55.964;37.674;2023-06-22T09:47:42;5.95;;;3.05;;
69621;SDS011;56841;55.964;37.674;2023-06-22T09:50:08;4.28;;;2.63;;
69621;SDS011;56841;55.964;37.674;2023-06-22T09:52:33;6.18;;;3.70;;
69621;SDS011;56841;55.964;37.674;2023-06-22T09:54:59;6.45;;;2.70;;
69621;SDS011;56841;55.964;37.674;2023-06-22T09:57:25;8.90;;;2.67;;
69621;SDS011;56841;55.964;37.674;2023-06-22T09:59:50;6.68;;;2.90;;
69621;SDS011;56841;55.964;37.674;2023-06-22T10:02:16;6.35;;;2.85;;
69621;SDS011;56841;55.964;37.674;2023-06-22T10:04:42;5.90;;;3.30;;
69621;SDS011;56841;55.964;37.674;2023-06-22T10:07:08;4.72;;;2.78;;
69621;SDS011;56841;55.964;37.674;2023-06-22T10:09:33;7.25;;;3.90;;
69621;SDS011;56841;55.964;37.674;2023-06-22T10:11:59;8.95;;;3.85;;
69621;SDS011;56841;55.964;37.674;2023-06-22T10:14:24;9.25;;;3.75;;
69621;SDS011;56841;55.964;37.674;2023-06-22T10:16:51;11.05;;;3.53;;
69621;SDS011;56841;55.964;37.674;2023-06-22T10:19:18;4.43;;;2.60;;
69621;SDS011;56841;55.964;37.674;2023-06-22T10:21:43;7.22;;;3.65;;
